EGNX

East Midlands Airport

Nottingham, United Kingdom
METAR EGNX 201220Z 23009KT CAVOK 14/10 Q1030
Observed Flight Rules
Oct-20 @ 12:20 UTC (34 minutes ago) Visual Flight Rules
Wind Visibility Clouds
230° at 9 knots 10,000+ meters
  • Clear skies
Temperatures Readings
Current 14°C / 57°F
Dewpoint 10°C / 50°F
Humidity 77%
Altimeter 30.41" Hg
Pressure 1030 hPa
Elevation 94
METAR EGNX 201220Z 23009KT CAVOK 14/10 Q1030
Observed Flight Rules
Oct-20 @ 12:20 UTC
(34 minutes ago)
VFR
Wind Visibility
230° at 9 knots 10,000+ meters
Clouds
  • Clear skies
Temperature Dewpoint
14°C / 57°F 10°C / 50°F
Humidity Altimeter Pressure
77% 30.41" Hg 1030 hPa